sensor_id;sensor_type;location;lat;lon;timestamp;P1;durP1;ratioP1;P2;durP2;ratioP2
19605;SDS011;9950;50.168;8.210;2023-05-31T00:00:01;9.88;;;3.15;;
19605;SDS011;9950;50.168;8.210;2023-05-31T00:02:30;9.60;;;3.10;;
19605;SDS011;9950;50.168;8.210;2023-05-31T00:04:57;8.77;;;3.40;;
19605;SDS011;9950;50.168;8.210;2023-05-31T00:07:25;14.52;;;3.90;;
19605;SDS011;9950;50.168;8.210;2023-05-31T00:09:52;8.30;;;3.05;;
19605;SDS011;9950;50.168;8.210;2023-05-31T00:12:19;8.15;;;3.17;;
19605;SDS011;9950;50.168;8.210;2023-05-31T00:14:46;14.73;;;3.85;;
19605;SDS011;9950;50.168;8.210;2023-05-31T00:17:13;9.25;;;3.55;;
19605;SDS011;9950;50.168;8.210;2023-05-31T00:19:42;11.43;;;3.55;;
19605;SDS011;9950;50.168;8.210;2023-05-31T00:22:09;8.40;;;3.50;;
19605;SDS011;9950;50.168;8.210;2023-05-31T00:24:36;7.97;;;3.00;;
19605;SDS011;9950;50.168;8.210;2023-05-31T00:27:04;10.40;;;3.17;;
19605;SDS011;9950;50.168;8.210;2023-05-31T00:29:31;8.45;;;3.60;;
19605;SDS011;9950;50.168;8.210;2023-05-31T00:31:58;6.38;;;3.10;;
19605;SDS011;9950;50.168;8.210;2023-05-31T00:34:25;9.00;;;3.30;;
19605;SDS011;9950;50.168;8.210;2023-05-31T00:36:54;11.65;;;3.85;;
19605;SDS011;9950;50.168;8.210;2023-05-31T00:39:21;6.35;;;3.40;;
19605;SDS011;9950;50.168;8.210;2023-05-31T00:41:48;9.85;;;3.40;;
19605;SDS011;9950;50.168;8.210;2023-05-31T00:44:16;9.38;;;3.28;;
19605;SDS011;9950;50.168;8.210;2023-05-31T00:46:43;8.82;;;3.83;;
19605;SDS011;9950;50.168;8.210;2023-05-31T00:49:10;10.25;;;3.80;;
19605;SDS011;9950;50.168;8.210;2023-05-31T00:51:37;9.02;;;3.80;;
19605;SDS011;9950;50.168;8.210;2023-05-31T00:54:06;10.80;;;3.67;;
19605;SDS011;9950;50.168;8.210;2023-05-31T00:56:33;11.57;;;3.83;;
19605;SDS011;9950;50.168;8.210;2023-05-31T00:59:00;9.40;;;3.58;;
19605;SDS011;9950;50.168;8.210;2023-05-31T01:01:28;11.30;;;3.40;;
19605;SDS011;9950;50.168;8.210;2023-05-31T01:03:58;10.05;;;3.80;;
19605;SDS011;9950;50.168;8.210;2023-05-31T01:06:26;10.45;;;4.35;;
19605;SDS011;9950;50.168;8.210;2023-05-31T01:08:57;9.45;;;4.03;;
19605;SDS011;9950;50.168;8.210;2023-05-31T01:11:29;10.45;;;3.92;;
19605;SDS011;9950;50.168;8.210;2023-05-31T01:13:58;12.18;;;4.30;;
19605;SDS011;9950;50.168;8.210;2023-05-31T01:16:31;9.55;;;4.32;;
19605;SDS011;9950;50.168;8.210;2023-05-31T01:18:59;12.27;;;4.45;;
19605;SDS011;9950;50.168;8.210;2023-05-31T01:21:32;7.70;;;4.07;;
19605;SDS011;9950;50.168;8.210;2023-05-31T01:24:08;8.45;;;3.70;;
19605;SDS011;9950;50.168;8.210;2023-05-31T01:26:42;10.00;;;3.95;;
19605;SDS011;9950;50.168;8.210;2023-05-31T01:29:12;11.43;;;3.95;;
19605;SDS011;9950;50.168;8.210;2023-05-31T01:31:40;11.35;;;3.78;;
19605;SDS011;9950;50.168;8.210;2023-05-31T01:34:08;9.40;;;4.50;;
19605;SDS011;9950;50.168;8.210;2023-05-31T01:36:35;15.48;;;4.88;;
19605;SDS011;9950;50.168;8.210;2023-05-31T01:39:02;9.23;;;4.10;;
19605;SDS011;9950;50.168;8.210;2023-05-31T01:41:30;7.85;;;4.10;;
19605;SDS011;9950;50.168;8.210;2023-05-31T01:43:59;9.25;;;4.00;;
19605;SDS011;9950;50.168;8.210;2023-05-31T01:46:27;10.80;;;4.30;;
19605;SDS011;9950;50.168;8.210;2023-05-31T01:48:54;10.52;;;4.40;;
19605;SDS011;9950;50.168;8.210;2023-05-31T01:51:21;8.88;;;3.83;;
19605;SDS011;9950;50.168;8.210;2023-05-31T01:53:49;9.95;;;4.43;;
19605;SDS011;9950;50.168;8.210;2023-05-31T01:56:16;9.90;;;4.20;;
19605;SDS011;9950;50.168;8.210;2023-05-31T01:58:44;12.00;;;4.13;;
19605;SDS011;9950;50.168;8.210;2023-05-31T02:01:15;10.88;;;4.15;;
19605;SDS011;9950;50.168;8.210;2023-05-31T02:03:42;10.90;;;4.55;;
19605;SDS011;9950;50.168;8.210;2023-05-31T02:06:09;13.05;;;4.45;;
19605;SDS011;9950;50.168;8.210;2023-05-31T02:08:38;10.50;;;4.15;;
19605;SDS011;9950;50.168;8.210;2023-05-31T02:11:05;10.23;;;4.65;;
19605;SDS011;9950;50.168;8.210;2023-05-31T02:13:33;8.10;;;4.00;;
19605;SDS011;9950;50.168;8.210;2023-05-31T02:16:00;11.93;;;4.63;;
19605;SDS011;9950;50.168;8.210;2023-05-31T02:18:30;11.02;;;4.20;;
19605;SDS011;9950;50.168;8.210;2023-05-31T02:20:57;7.38;;;3.92;;
19605;SDS011;9950;50.168;8.210;2023-05-31T02:23:24;8.20;;;3.50;;
19605;SDS011;9950;50.168;8.210;2023-05-31T02:25:51;6.43;;;4.22;;
19605;SDS011;9950;50.168;8.210;2023-05-31T02:28:20;12.00;;;4.90;;
19605;SDS011;9950;50.168;8.210;2023-05-31T02:30:53;11.05;;;4.50;;
19605;SDS011;9950;50.168;8.210;2023-05-31T02:33:20;10.55;;;5.20;;
19605;SDS011;9950;50.168;8.210;2023-05-31T02:35:49;10.55;;;4.20;;
19605;SDS011;9950;50.168;8.210;2023-05-31T02:38:16;8.38;;;4.75;;
19605;SDS011;9950;50.168;8.210;2023-05-31T02:40:43;11.48;;;4.22;;
19605;SDS011;9950;50.168;8.210;2023-05-31T02:43:11;9.75;;;4.38;;
19605;SDS011;9950;50.168;8.210;2023-05-31T02:45:38;6.50;;;4.13;;
19605;SDS011;9950;50.168;8.210;2023-05-31T02:48:05;7.53;;;4.10;;
19605;SDS011;9950;50.168;8.210;2023-05-31T02:50:32;7.82;;;4.32;;
19605;SDS011;9950;50.168;8.210;2023-05-31T02:53:01;11.60;;;3.85;;
19605;SDS011;9950;50.168;8.210;2023-05-31T02:55:29;11.27;;;4.60;;
19605;SDS011;9950;50.168;8.210;2023-05-31T02:57:57;12.18;;;3.72;;
19605;SDS011;9950;50.168;8.210;2023-05-31T03:00:24;12.35;;;4.53;;
19605;SDS011;9950;50.168;8.210;2023-05-31T03:02:51;9.70;;;4.22;;
19605;SDS011;9950;50.168;8.210;2023-05-31T03:05:18;6.88;;;4.10;;
19605;SDS011;9950;50.168;8.210;2023-05-31T03:07:46;8.55;;;4.32;;
19605;SDS011;9950;50.168;8.210;2023-05-31T03:10:14;6.38;;;3.92;;
19605;SDS011;9950;50.168;8.210;2023-05-31T03:12:41;12.32;;;5.13;;
19605;SDS011;9950;50.168;8.210;2023-05-31T03:15:09;12.50;;;4.90;;
19605;SDS011;9950;50.168;8.210;2023-05-31T03:17:36;11.63;;;4.95;;
19605;SDS011;9950;50.168;8.210;2023-05-31T03:20:05;10.90;;;4.82;;
19605;SDS011;9950;50.168;8.210;2023-05-31T03:22:34;9.82;;;4.63;;
19605;SDS011;9950;50.168;8.210;2023-05-31T03:25:01;11.25;;;4.97;;
19605;SDS011;9950;50.168;8.210;2023-05-31T03:27:30;9.32;;;4.55;;
19605;SDS011;9950;50.168;8.210;2023-05-31T03:29:58;6.57;;;4.50;;
19605;SDS011;9950;50.168;8.210;2023-05-31T03:32:25;14.02;;;5.80;;
19605;SDS011;9950;50.168;8.210;2023-05-31T03:34:52;7.85;;;4.35;;
19605;SDS011;9950;50.168;8.210;2023-05-31T03:37:19;7.40;;;4.45;;
19605;SDS011;9950;50.168;8.210;2023-05-31T03:39:46;10.20;;;4.70;;
19605;SDS011;9950;50.168;8.210;2023-05-31T03:42:13;9.57;;;4.93;;
19605;SDS011;9950;50.168;8.210;2023-05-31T03:44:42;6.72;;;4.50;;
19605;SDS011;9950;50.168;8.210;2023-05-31T03:47:09;9.30;;;4.40;;
19605;SDS011;9950;50.168;8.210;2023-05-31T03:49:37;8.80;;;4.72;;
19605;SDS011;9950;50.168;8.210;2023-05-31T03:52:04;9.13;;;4.47;;
19605;SDS011;9950;50.168;8.210;2023-05-31T03:54:34;11.45;;;4.60;;
19605;SDS011;9950;50.168;8.210;2023-05-31T03:57:02;9.93;;;4.40;;
19605;SDS011;9950;50.168;8.210;2023-05-31T03:59:29;11.82;;;5.68;;
19605;SDS011;9950;50.168;8.210;2023-05-31T04:01:58;7.82;;;4.85;;
19605;SDS011;9950;50.168;8.210;2023-05-31T04:04:25;11.70;;;5.47;;
19605;SDS011;9950;50.168;8.210;2023-05-31T04:06:52;10.05;;;5.43;;
19605;SDS011;9950;50.168;8.210;2023-05-31T04:09:20;9.75;;;4.60;;
19605;SDS011;9950;50.168;8.210;2023-05-31T04:11:48;13.82;;;5.00;;
19605;SDS011;9950;50.168;8.210;2023-05-31T04:14:15;11.98;;;4.80;;
19605;SDS011;9950;50.168;8.210;2023-05-31T04:16:42;11.25;;;4.82;;
19605;SDS011;9950;50.168;8.210;2023-05-31T04:19:11;10.65;;;5.50;;
19605;SDS011;9950;50.168;8.210;2023-05-31T04:21:38;12.40;;;4.72;;
19605;SDS011;9950;50.168;8.210;2023-05-31T04:24:05;9.95;;;5.00;;
19605;SDS011;9950;50.168;8.210;2023-05-31T04:26:32;10.93;;;4.72;;
19605;SDS011;9950;50.168;8.210;2023-05-31T04:29:00;10.60;;;4.88;;
19605;SDS011;9950;50.168;8.210;2023-05-31T04:31:28;8.48;;;4.47;;
19605;SDS011;9950;50.168;8.210;2023-05-31T04:33:56;10.55;;;4.63;;
19605;SDS011;9950;50.168;8.210;2023-05-31T04:36:26;11.90;;;4.82;;
19605;SDS011;9950;50.168;8.210;2023-05-31T04:38:54;9.07;;;4.60;;
19605;SDS011;9950;50.168;8.210;2023-05-31T04:41:22;12.27;;;4.60;;
19605;SDS011;9950;50.168;8.210;2023-05-31T04:43:50;8.95;;;4.65;;
19605;SDS011;9950;50.168;8.210;2023-05-31T04:46:18;12.85;;;5.18;;
19605;SDS011;9950;50.168;8.210;2023-05-31T04:48:46;8.93;;;4.28;;
19605;SDS011;9950;50.168;8.210;2023-05-31T04:51:15;7.75;;;4.05;;
19605;SDS011;9950;50.168;8.210;2023-05-31T04:53:44;11.18;;;4.47;;
19605;SDS011;9950;50.168;8.210;2023-05-31T04:56:12;8.95;;;4.50;;
19605;SDS011;9950;50.168;8.210;2023-05-31T04:58:39;25.15;;;13.75;;
19605;SDS011;9950;50.168;8.210;2023-05-31T05:01:07;11.90;;;6.35;;
19605;SDS011;9950;50.168;8.210;2023-05-31T05:03:34;10.35;;;4.82;;
19605;SDS011;9950;50.168;8.210;2023-05-31T05:06:11;8.18;;;4.10;;
19605;SDS011;9950;50.168;8.210;2023-05-31T05:08:38;10.88;;;4.25;;
19605;SDS011;9950;50.168;8.210;2023-05-31T05:11:07;8.95;;;4.00;;
19605;SDS011;9950;50.168;8.210;2023-05-31T05:13:34;6.65;;;4.07;;
19605;SDS011;9950;50.168;8.210;2023-05-31T05:16:01;16.48;;;8.85;;
19605;SDS011;9950;50.168;8.210;2023-05-31T05:18:28;47.88;;;25.85;;
19605;SDS011;9950;50.168;8.210;2023-05-31T05:20:56;17.83;;;7.85;;
19605;SDS011;9950;50.168;8.210;2023-05-31T05:23:23;11.30;;;4.60;;
19605;SDS011;9950;50.168;8.210;2023-05-31T05:25:50;8.30;;;4.43;;
19605;SDS011;9950;50.168;8.210;2023-05-31T05:28:19;8.60;;;4.07;;
19605;SDS011;9950;50.168;8.210;2023-05-31T05:30:47;6.70;;;3.90;;
19605;SDS011;9950;50.168;8.210;2023-05-31T05:33:14;9.05;;;4.22;;
19605;SDS011;9950;50.168;8.210;2023-05-31T05:35:41;9.93;;;4.40;;
19605;SDS011;9950;50.168;8.210;2023-05-31T05:38:08;6.90;;;3.83;;
19605;SDS011;9950;50.168;8.210;2023-05-31T05:40:36;14.65;;;4.32;;
19605;SDS011;9950;50.168;8.210;2023-05-31T05:43:04;6.72;;;4.18;;
19605;SDS011;9950;50.168;8.210;2023-05-31T05:45:33;8.48;;;4.40;;
19605;SDS011;9950;50.168;8.210;2023-05-31T05:48:00;7.55;;;3.97;;
19605;SDS011;9950;50.168;8.210;2023-05-31T05:50:27;7.70;;;3.55;;
19605;SDS011;9950;50.168;8.210;2023-05-31T05:52:54;7.97;;;3.97;;
19605;SDS011;9950;50.168;8.210;2023-05-31T05:55:22;7.50;;;3.75;;
19605;SDS011;9950;50.168;8.210;2023-05-31T05:57:49;9.95;;;3.75;;
19605;SDS011;9950;50.168;8.210;2023-05-31T06:00:17;9.98;;;4.68;;
19605;SDS011;9950;50.168;8.210;2023-05-31T06:02:47;8.00;;;3.75;;
19605;SDS011;9950;50.168;8.210;2023-05-31T06:05:14;6.60;;;3.70;;
19605;SDS011;9950;50.168;8.210;2023-05-31T06:07:42;7.93;;;3.60;;
19605;SDS011;9950;50.168;8.210;2023-05-31T06:10:09;8.07;;;3.78;;
19605;SDS011;9950;50.168;8.210;2023-05-31T06:12:36;10.20;;;3.40;;
19605;SDS011;9950;50.168;8.210;2023-05-31T06:15:04;7.40;;;3.67;;
19605;SDS011;9950;50.168;8.210;2023-05-31T06:17:31;8.57;;;3.63;;
19605;SDS011;9950;50.168;8.210;2023-05-31T06:20:00;5.57;;;3.60;;
19605;SDS011;9950;50.168;8.210;2023-05-31T06:22:30;7.65;;;3.70;;
19605;SDS011;9950;50.168;8.210;2023-05-31T06:24:57;9.75;;;3.63;;
19605;SDS011;9950;50.168;8.210;2023-05-31T06:27:24;6.15;;;2.90;;
19605;SDS011;9950;50.168;8.210;2023-05-31T06:29:52;7.43;;;3.75;;
19605;SDS011;9950;50.168;8.210;2023-05-31T06:32:23;8.75;;;3.85;;
19605;SDS011;9950;50.168;8.210;2023-05-31T06:34:50;7.53;;;3.20;;
19605;SDS011;9950;50.168;8.210;2023-05-31T06:37:19;5.93;;;3.55;;
19605;SDS011;9950;50.168;8.210;2023-05-31T06:39:46;5.05;;;3.10;;
19605;SDS011;9950;50.168;8.210;2023-05-31T06:42:13;5.72;;;3.13;;
19605;SDS011;9950;50.168;8.210;2023-05-31T06:44:41;6.53;;;3.05;;
19605;SDS011;9950;50.168;8.210;2023-05-31T06:47:08;5.90;;;3.33;;
19605;SDS011;9950;50.168;8.210;2023-05-31T06:49:35;7.50;;;3.45;;
19605;SDS011;9950;50.168;8.210;2023-05-31T06:52:03;10.27;;;3.33;;
19605;SDS011;9950;50.168;8.210;2023-05-31T06:54:33;8.20;;;3.35;;
19605;SDS011;9950;50.168;8.210;2023-05-31T06:57:00;7.63;;;3.20;;
19605;SDS011;9950;50.168;8.210;2023-05-31T06:59:28;6.35;;;2.97;;
19605;SDS011;9950;50.168;8.210;2023-05-31T07:01:55;6.72;;;3.03;;
19605;SDS011;9950;50.168;8.210;2023-05-31T07:04:22;6.28;;;3.25;;
19605;SDS011;9950;50.168;8.210;2023-05-31T07:06:49;8.95;;;3.33;;
19605;SDS011;9950;50.168;8.210;2023-05-31T07:09:17;6.30;;;3.15;;
19605;SDS011;9950;50.168;8.210;2023-05-31T07:11:45;5.55;;;3.00;;
19605;SDS011;9950;50.168;8.210;2023-05-31T07:14:12;7.80;;;2.97;;
19605;SDS011;9950;50.168;8.210;2023-05-31T07:16:39;6.15;;;2.42;;
19605;SDS011;9950;50.168;8.210;2023-05-31T07:19:06;5.82;;;2.90;;
19605;SDS011;9950;50.168;8.210;2023-05-31T07:21:33;6.93;;;2.63;;
19605;SDS011;9950;50.168;8.210;2023-05-31T07:24:01;6.93;;;2.15;;
19605;SDS011;9950;50.168;8.210;2023-05-31T07:26:28;5.57;;;2.30;;
19605;SDS011;9950;50.168;8.210;2023-05-31T07:28:57;3.28;;;2.10;;
19605;SDS011;9950;50.168;8.210;2023-05-31T07:31:24;7.97;;;2.35;;
19605;SDS011;9950;50.168;8.210;2023-05-31T07:33:51;3.42;;;2.13;;
19605;SDS011;9950;50.168;8.210;2023-05-31T07:36:18;4.45;;;2.05;;
19605;SDS011;9950;50.168;8.210;2023-05-31T07:38:45;5.80;;;2.10;;
19605;SDS011;9950;50.168;8.210;2023-05-31T07:41:13;4.25;;;2.03;;
19605;SDS011;9950;50.168;8.210;2023-05-31T07:43:40;4.70;;;2.10;;
19605;SDS011;9950;50.168;8.210;2023-05-31T07:46:11;4.50;;;1.98;;
19605;SDS011;9950;50.168;8.210;2023-05-31T07:48:38;4.05;;;1.98;;
19605;SDS011;9950;50.168;8.210;2023-05-31T07:51:05;4.18;;;1.90;;
19605;SDS011;9950;50.168;8.210;2023-05-31T07:53:32;5.82;;;2.42;;
19605;SDS011;9950;50.168;8.210;2023-05-31T07:55:59;5.00;;;1.80;;
19605;SDS011;9950;50.168;8.210;2023-05-31T07:58:27;6.25;;;1.85;;
19605;SDS011;9950;50.168;8.210;2023-05-31T08:00:54;4.00;;;2.15;;
19605;SDS011;9950;50.168;8.210;2023-05-31T08:03:23;3.53;;;1.90;;
19605;SDS011;9950;50.168;8.210;2023-05-31T08:05:51;3.03;;;1.80;;
19605;SDS011;9950;50.168;8.210;2023-05-31T08:08:18;3.17;;;1.90;;
19605;SDS011;9950;50.168;8.210;2023-05-31T08:10:45;5.05;;;1.80;;
19605;SDS011;9950;50.168;8.210;2023-05-31T08:13:12;5.32;;;1.83;;
19605;SDS011;9950;50.168;8.210;2023-05-31T08:15:40;3.63;;;1.92;;
19605;SDS011;9950;50.168;8.210;2023-05-31T08:18:07;3.55;;;1.95;;
19605;SDS011;9950;50.168;8.210;2023-05-31T08:20:35;3.55;;;1.90;;
19605;SDS011;9950;50.168;8.210;2023-05-31T08:23:03;4.90;;;1.83;;
19605;SDS011;9950;50.168;8.210;2023-05-31T08:25:30;3.15;;;1.98;;
19605;SDS011;9950;50.168;8.210;2023-05-31T08:27:57;5.60;;;1.77;;
19605;SDS011;9950;50.168;8.210;2023-05-31T08:30:24;4.50;;;1.85;;
19605;SDS011;9950;50.168;8.210;2023-05-31T08:32:52;6.85;;;1.80;;
19605;SDS011;9950;50.168;8.210;2023-05-31T08:35:19;4.43;;;2.20;;
19605;SDS011;9950;50.168;8.210;2023-05-31T08:37:48;4.03;;;2.03;;
19605;SDS011;9950;50.168;8.210;2023-05-31T08:40:15;4.38;;;2.30;;
19605;SDS011;9950;50.168;8.210;2023-05-31T08:42:43;4.82;;;2.20;;
19605;SDS011;9950;50.168;8.210;2023-05-31T08:45:12;5.03;;;1.77;;
19605;SDS011;9950;50.168;8.210;2023-05-31T08:47:39;3.65;;;1.73;;
19605;SDS011;9950;50.168;8.210;2023-05-31T08:50:10;3.17;;;1.73;;
19605;SDS011;9950;50.168;8.210;2023-05-31T08:52:38;5.93;;;1.80;;
19605;SDS011;9950;50.168;8.210;2023-05-31T08:55:07;4.60;;;2.10;;
19605;SDS011;9950;50.168;8.210;2023-05-31T08:57:34;3.00;;;1.80;;
19605;SDS011;9950;50.168;8.210;2023-05-31T09:00:02;4.57;;;2.25;;
19605;SDS011;9950;50.168;8.210;2023-05-31T09:02:34;4.57;;;1.85;;
19605;SDS011;9950;50.168;8.210;2023-05-31T09:05:02;3.70;;;1.60;;
19605;SDS011;9950;50.168;8.210;2023-05-31T09:07:30;3.63;;;1.77;;
19605;SDS011;9950;50.168;8.210;2023-05-31T09:09:57;3.33;;;1.67;;
19605;SDS011;9950;50.168;8.210;2023-05-31T09:12:25;3.05;;;1.95;;
19605;SDS011;9950;50.168;8.210;2023-05-31T09:14:53;4.80;;;1.70;;
19605;SDS011;9950;50.168;8.210;2023-05-31T09:17:21;6.53;;;1.80;;
19605;SDS011;9950;50.168;8.210;2023-05-31T09:19:52;3.40;;;1.90;;
19605;SDS011;9950;50.168;8.210;2023-05-31T09:22:21;3.22;;;1.90;;
19605;SDS011;9950;50.168;8.210;2023-05-31T09:24:48;10.85;;;2.35;;
19605;SDS011;9950;50.168;8.210;2023-05-31T09:27:16;5.72;;;1.80;;
19605;SDS011;9950;50.168;8.210;2023-05-31T09:29:45;5.45;;;1.80;;
19605;SDS011;9950;50.168;8.210;2023-05-31T09:32:17;3.42;;;1.90;;
19605;SDS011;9950;50.168;8.210;2023-05-31T09:34:44;3.67;;;1.88;;
19605;SDS011;9950;50.168;8.210;2023-05-31T09:37:20;4.47;;;2.08;;
19605;SDS011;9950;50.168;8.210;2023-05-31T09:39:54;3.55;;;1.80;;
19605;SDS011;9950;50.168;8.210;2023-05-31T09:42:22;5.43;;;1.80;;
19605;SDS011;9950;50.168;8.210;2023-05-31T09:44:52;4.13;;;1.85;;
19605;SDS011;9950;50.168;8.210;2023-05-31T09:47:22;4.32;;;2.03;;
19605;SDS011;9950;50.168;8.210;2023-05-31T09:49:52;4.13;;;1.60;;
19605;SDS011;9950;50.168;8.210;2023-05-31T09:52:20;4.43;;;2.00;;
19605;SDS011;9950;50.168;8.210;2023-05-31T09:54:48;5.88;;;2.40;;
19605;SDS011;9950;50.168;8.210;2023-05-31T09:57:31;4.45;;;1.80;;
19605;SDS011;9950;50.168;8.210;2023-05-31T10:00:00;4.30;;;2.03;;
19605;SDS011;9950;50.168;8.210;2023-05-31T10:02:30;4.97;;;2.20;;
19605;SDS011;9950;50.168;8.210;2023-05-31T10:04:58;4.10;;;2.05;;
19605;SDS011;9950;50.168;8.210;2023-05-31T10:07:26;7.78;;;2.55;;
19605;SDS011;9950;50.168;8.210;2023-05-31T10:09:53;3.08;;;1.65;;
19605;SDS011;9950;50.168;8.210;2023-05-31T10:12:21;3.75;;;1.83;;
19605;SDS011;9950;50.168;8.210;2023-05-31T10:14:53;3.50;;;1.90;;
19605;SDS011;9950;50.168;8.210;2023-05-31T10:17:23;5.78;;;2.03;;
19605;SDS011;9950;50.168;8.210;2023-05-31T10:19:54;4.40;;;1.80;;
19605;SDS011;9950;50.168;8.210;2023-05-31T10:22:23;4.07;;;2.13;;
19605;SDS011;9950;50.168;8.210;2023-05-31T10:24:55;4.55;;;2.15;;
19605;SDS011;9950;50.168;8.210;2023-05-31T10:27:25;4.22;;;1.73;;
19605;SDS011;9950;50.168;8.210;2023-05-31T10:29:56;3.25;;;1.50;;
19605;SDS011;9950;50.168;8.210;2023-05-31T10:32:32;6.20;;;1.73;;
19605;SDS011;9950;50.168;8.210;2023-05-31T10:35:00;3.50;;;1.77;;
19605;SDS011;9950;50.168;8.210;2023-05-31T10:37:28;3.80;;;1.85;;
19605;SDS011;9950;50.168;8.210;2023-05-31T10:39:58;3.38;;;1.67;;
19605;SDS011;9950;50.168;8.210;2023-05-31T10:42:33;4.47;;;2.13;;
19605;SDS011;9950;50.168;8.210;2023-05-31T10:45:04;6.20;;;1.80;;
19605;SDS011;9950;50.168;8.210;2023-05-31T10:47:35;3.50;;;1.98;;
19605;SDS011;9950;50.168;8.210;2023-05-31T10:50:05;3.45;;;1.95;;
19605;SDS011;9950;50.168;8.210;2023-05-31T10:52:32;6.85;;;2.10;;
19605;SDS011;9950;50.168;8.210;2023-05-31T10:55:15;3.38;;;1.65;;
19605;SDS011;9950;50.168;8.210;2023-05-31T10:57:42;5.60;;;2.15;;
19605;SDS011;9950;50.168;8.210;2023-05-31T11:00:10;3.58;;;1.95;;
19605;SDS011;9950;50.168;8.210;2023-05-31T11:02:39;4.00;;;1.80;;
19605;SDS011;9950;50.168;8.210;2023-05-31T11:05:18;3.13;;;1.85;;
19605;SDS011;9950;50.168;8.210;2023-05-31T11:07:46;4.32;;;1.60;;
19605;SDS011;9950;50.168;8.210;2023-05-31T11:10:23;3.47;;;1.60;;
19605;SDS011;9950;50.168;8.210;2023-05-31T11:12:50;3.88;;;1.80;;
19605;SDS011;9950;50.168;8.210;2023-05-31T11:15:17;4.00;;;1.90;;
19605;SDS011;9950;50.168;8.210;2023-05-31T11:17:53;6.45;;;2.33;;
19605;SDS011;9950;50.168;8.210;2023-05-31T11:20:21;2.03;;;1.63;;
19605;SDS011;9950;50.168;8.210;2023-05-31T11:22:52;2.88;;;1.70;;
19605;SDS011;9950;50.168;8.210;2023-05-31T11:25:40;3.03;;;1.80;;
19605;SDS011;9950;50.168;8.210;2023-05-31T11:28:07;2.28;;;1.60;;
19605;SDS011;9950;50.168;8.210;2023-05-31T11:30:35;4.38;;;1.75;;
19605;SDS011;9950;50.168;8.210;2023-05-31T11:33:04;5.10;;;1.80;;
19605;SDS011;9950;50.168;8.210;2023-05-31T11:35:40;5.22;;;1.80;;
19605;SDS011;9950;50.168;8.210;2023-05-31T11:38:07;4.80;;;2.05;;
19605;SDS011;9950;50.168;8.210;2023-05-31T11:40:34;4.03;;;1.58;;
19605;SDS011;9950;50.168;8.210;2023-05-31T11:43:02;4.07;;;1.60;;
19605;SDS011;9950;50.168;8.210;2023-05-31T11:45:31;4.15;;;2.00;;
19605;SDS011;9950;50.168;8.210;2023-05-31T11:48:02;4.72;;;1.83;;
19605;SDS011;9950;50.168;8.210;2023-05-31T11:50:33;3.78;;;1.75;;
19605;SDS011;9950;50.168;8.210;2023-05-31T11:53:01;3.97;;;1.85;;
19605;SDS011;9950;50.168;8.210;2023-05-31T11:55:29;4.82;;;1.63;;
19605;SDS011;9950;50.168;8.210;2023-05-31T11:57:58;3.05;;;1.90;;
19605;SDS011;9950;50.168;8.210;2023-05-31T12:00:26;3.53;;;1.77;;
19605;SDS011;9950;50.168;8.210;2023-05-31T12:02:55;3.45;;;1.85;;
19605;SDS011;9950;50.168;8.210;2023-05-31T12:05:23;5.80;;;1.67;;
19605;SDS011;9950;50.168;8.210;2023-05-31T12:07:53;4.03;;;1.60;;
19605;SDS011;9950;50.168;8.210;2023-05-31T12:10:21;2.65;;;1.50;;
19605;SDS011;9950;50.168;8.210;2023-05-31T12:12:51;3.47;;;1.52;;
19605;SDS011;9950;50.168;8.210;2023-05-31T12:15:18;5.15;;;1.48;;
19605;SDS011;9950;50.168;8.210;2023-05-31T12:17:45;3.47;;;1.70;;
19605;SDS011;9950;50.168;8.210;2023-05-31T12:20:13;7.05;;;1.77;;
19605;SDS011;9950;50.168;8.210;2023-05-31T12:22:40;5.05;;;1.85;;
19605;SDS011;9950;50.168;8.210;2023-05-31T12:25:08;4.07;;;1.67;;
19605;SDS011;9950;50.168;8.210;2023-05-31T12:27:36;5.32;;;1.95;;
19605;SDS011;9950;50.168;8.210;2023-05-31T12:30:04;4.80;;;1.70;;
19605;SDS011;9950;50.168;8.210;2023-05-31T12:32:31;4.18;;;2.28;;
19605;SDS011;9950;50.168;8.210;2023-05-31T12:35:05;3.15;;;1.70;;
19605;SDS011;9950;50.168;8.210;2023-05-31T12:37:33;3.20;;;1.77;;
19605;SDS011;9950;50.168;8.210;2023-05-31T12:40:09;6.50;;;1.75;;
19605;SDS011;9950;50.168;8.210;2023-05-31T12:42:36;3.22;;;1.80;;
19605;SDS011;9950;50.168;8.210;2023-05-31T12:45:04;6.18;;;1.98;;
19605;SDS011;9950;50.168;8.210;2023-05-31T12:47:31;4.47;;;1.70;;
19605;SDS011;9950;50.168;8.210;2023-05-31T12:50:02;2.55;;;1.60;;
19605;SDS011;9950;50.168;8.210;2023-05-31T12:52:31;3.03;;;1.90;;
19605;SDS011;9950;50.168;8.210;2023-05-31T12:54:59;4.15;;;1.70;;
19605;SDS011;9950;50.168;8.210;2023-05-31T12:57:28;2.00;;;1.55;;
19605;SDS011;9950;50.168;8.210;2023-05-31T12:59:59;5.95;;;1.63;;
19605;SDS011;9950;50.168;8.210;2023-05-31T13:02:26;2.65;;;1.60;;
19605;SDS011;9950;50.168;8.210;2023-05-31T13:04:54;3.45;;;1.67;;
19605;SDS011;9950;50.168;8.210;2023-05-31T13:07:21;2.97;;;1.67;;
19605;SDS011;9950;50.168;8.210;2023-05-31T13:09:48;7.57;;;2.17;;
19605;SDS011;9950;50.168;8.210;2023-05-31T13:12:16;11.77;;;8.02;;
19605;SDS011;9950;50.168;8.210;2023-05-31T13:14:47;4.28;;;2.50;;
19605;SDS011;9950;50.168;8.210;2023-05-31T13:17:15;2.80;;;2.00;;
19605;SDS011;9950;50.168;8.210;2023-05-31T13:19:42;3.63;;;1.80;;
19605;SDS011;9950;50.168;8.210;2023-05-31T13:22:11;3.10;;;2.00;;
19605;SDS011;9950;50.168;8.210;2023-05-31T13:24:38;3.20;;;1.98;;
19605;SDS011;9950;50.168;8.210;2023-05-31T13:27:06;5.57;;;2.50;;
19605;SDS011;9950;50.168;8.210;2023-05-31T13:29:34;5.60;;;2.15;;
19605;SDS011;9950;50.168;8.210;2023-05-31T13:32:02;3.03;;;1.70;;
19605;SDS011;9950;50.168;8.210;2023-05-31T13:34:30;3.72;;;1.83;;
19605;SDS011;9950;50.168;8.210;2023-05-31T13:36:58;4.50;;;1.60;;
19605;SDS011;9950;50.168;8.210;2023-05-31T13:39:25;2.38;;;1.70;;
19605;SDS011;9950;50.168;8.210;2023-05-31T13:41:52;4.07;;;1.92;;
19605;SDS011;9950;50.168;8.210;2023-05-31T13:44:20;3.35;;;1.50;;
19605;SDS011;9950;50.168;8.210;2023-05-31T13:46:47;3.45;;;1.60;;
19605;SDS011;9950;50.168;8.210;2023-05-31T13:49:16;3.17;;;1.83;;
19605;SDS011;9950;50.168;8.210;2023-05-31T13:51:45;3.75;;;1.67;;
19605;SDS011;9950;50.168;8.210;2023-05-31T13:54:12;4.65;;;1.50;;
19605;SDS011;9950;50.168;8.210;2023-05-31T13:56:39;1.85;;;1.38;;
19605;SDS011;9950;50.168;8.210;2023-05-31T13:59:07;3.38;;;1.70;;
19605;SDS011;9950;50.168;8.210;2023-05-31T14:01:34;4.78;;;1.85;;
19605;SDS011;9950;50.168;8.210;2023-05-31T14:04:01;4.10;;;1.90;;
19605;SDS011;9950;50.168;8.210;2023-05-31T14:06:30;2.33;;;1.33;;
19605;SDS011;9950;50.168;8.210;2023-05-31T14:08:57;3.28;;;1.77;;
19605;SDS011;9950;50.168;8.210;2023-05-31T14:11:25;3.60;;;1.80;;
19605;SDS011;9950;50.168;8.210;2023-05-31T14:13:52;5.40;;;1.52;;
19605;SDS011;9950;50.168;8.210;2023-05-31T14:16:20;5.20;;;1.55;;
19605;SDS011;9950;50.168;8.210;2023-05-31T14:18:47;2.08;;;1.40;;
19605;SDS011;9950;50.168;8.210;2023-05-31T14:21:14;2.40;;;1.58;;
19605;SDS011;9950;50.168;8.210;2023-05-31T14:23:42;3.70;;;1.60;;
19605;SDS011;9950;50.168;8.210;2023-05-31T14:26:09;2.60;;;1.67;;
19605;SDS011;9950;50.168;8.210;2023-05-31T14:28:37;2.42;;;1.38;;
19605;SDS011;9950;50.168;8.210;2023-05-31T14:31:04;2.53;;;1.50;;
19605;SDS011;9950;50.168;8.210;2023-05-31T14:33:31;4.50;;;1.88;;
19605;SDS011;9950;50.168;8.210;2023-05-31T14:35:58;2.42;;;1.58;;
19605;SDS011;9950;50.168;8.210;2023-05-31T14:38:26;3.78;;;1.83;;
19605;SDS011;9950;50.168;8.210;2023-05-31T14:40:54;2.47;;;1.67;;
19605;SDS011;9950;50.168;8.210;2023-05-31T14:43:21;3.83;;;1.70;;
19605;SDS011;9950;50.168;8.210;2023-05-31T14:45:48;3.20;;;1.60;;
19605;SDS011;9950;50.168;8.210;2023-05-31T14:48:15;2.92;;;1.90;;
19605;SDS011;9950;50.168;8.210;2023-05-31T14:50:42;2.97;;;1.80;;
19605;SDS011;9950;50.168;8.210;2023-05-31T14:53:10;3.28;;;1.70;;
19605;SDS011;9950;50.168;8.210;2023-05-31T14:55:39;3.10;;;1.80;;
19605;SDS011;9950;50.168;8.210;2023-05-31T14:58:07;3.13;;;1.50;;
19605;SDS011;9950;50.168;8.210;2023-05-31T15:00:34;4.22;;;1.80;;
19605;SDS011;9950;50.168;8.210;2023-05-31T15:03:01;3.78;;;2.35;;